SARS/PRQ METAR and TAF weather

Enter ICAO airport designator
Station Type Date Time Source
SARS METAR 2021/05/04 20:00 UTC NOAA

SARS 042000Z 20010KT 1500 RA BKN007 OVC045 21/20 Q1015


Station Type Date Time Source
SARS Decoded METAR 2021/05/04 20:00 UTC NOAA

Presidencia Roque Saenz Pena Aerodrome, Argentina (SARS) 26-49S 060-27W 92M
May 04, 2021 - 04:00 PM EDT / 2021.05.04 2000 UTC
Wind: from the SSW (200 degrees) at 12 MPH (10 KT):0
Visibility: less than 1 mile:0
Sky conditions: overcast
Weather: rain
Temperature: 69 F (21 C)
Dew Point: 68 F (20 C)
Relative Humidity: 94%
Pressure (altimeter): 29.97 in. Hg (1015 hPa)
ob: SARS 042000Z 20010KT 1500 RA BKN007 OVC045 21/20 Q1015
cycle: 20

Station Type Date Time Source
SARS TAF UTC NOAA

Error!

Example: see airport list